Terminal Aerodrome Forecast
Issued by NWS Midland/Odessa, TX

Home | Current Version | Previous Version | Text Only | Print | Product List | Glossary On
Versions: 1 2 3 4 5 6 7 8 9 10 11 12 13 14 15 16 17 18 19 20 21 22 23 24 25 26 27 28 29
409
FTUS44 KMAF 312328 AAB
TAFMAF
TAF AMD
KMAF 312328Z 3123/0124 08013KT P6SM SCT080 BKN100
      TEMPO 0100/0102 VRB15G25KT 6SM TSRA BKN070CB
     FM010200 11005KT P6SM SCT070 OVC200
     FM011200 08008KT P6SM FEW060 OVC070
     FM011600 05007KT P6SM SCT016 OVC040=

USA.gov is the U.S. government's official web portal to all federal, state and local government web resources and services.